»·PEaware :: N62406 KAPV-KBFL

N62406 :: KAPV-KBFL

FLIGHT INFORMATION

Flight Status: Arrived
Operator: Privately registered:
United States
More flights under this callsign
Pilot: Jair P. (32054)
Aircraft: MOONEY M-20 201 202 205 220 ATS MSE
(M20P)
More flights by this aircraft type
Origin: KAPV Apple Valley
United States
Destination: KBFL Meadows
United States
More flights between these airports :: More routes between these airports
Route:
File this flight plan on PilotEdge
Remarks:
Altitude:
(Current/Filed)
6,500ft
Speed:
(Current/Filed)
160kts
Departed: 14-Nov-20 10:03 AM
Arrived: 14-Nov-20 10:48 AM
Distance/Time
Traveled:
6727nm/0:45
Distance/Time
To Go:
Arrived

Flight Plot

Page will automatically refresh every two minutes.


Map Options




Map Legend


Flown Route
Filed Route
Departure Airport
Arrival Airport
Navaid (VOR, NDB)
Fix

Horizontal Profiles

Position Reports

Time Latitude Longitude Heading Altitude Ground
Speed
14-Nov-20 09:42 34.574239 -117.189598 269 2977ft 0kts
14-Nov-20 09:43 34.574239 -117.189598 269 2977ft 0kts
14-Nov-20 09:44 34.574239 -117.189598 269 2977ft 0kts
14-Nov-20 09:45 34.574239 -117.189598 269 2977ft 0kts
14-Nov-20 09:46 34.574239 -117.189598 269 2977ft 0kts
14-Nov-20 09:47 34.574239 -117.189598 269 2977ft 0kts
14-Nov-20 09:48 34.574239 -117.189598 269 2977ft 0kts
14-Nov-20 09:49 34.574239 -117.189598 269 2977ft 0kts
14-Nov-20 09:50 34.574239 -117.189598 269 2977ft 0kts
14-Nov-20 09:51 34.574239 -117.189598 269 2977ft 0kts
14-Nov-20 09:52 34.574239 -117.189598 269 2977ft 0kts
14-Nov-20 09:53 34.574239 -117.189598 269 2977ft 0kts
14-Nov-20 09:55 34.573984 -117.189788 183 2975ft 13kts
14-Nov-20 09:56 34.573168 -117.188110 102 2972ft 0kts
14-Nov-20 09:57 34.574371 -117.188525 16 2977ft 9kts
14-Nov-20 09:58 34.576301 -117.187839 15 2992ft 7kts
14-Nov-20 09:59 34.580633 -117.186353 15 3023ft 14kts
14-Nov-20 10:00 34.585665 -117.184606 14 3050ft 18kts
14-Nov-20 10:01 34.586874 -117.183748 154 3060ft 0kts
14-Nov-20 10:02 34.586867 -117.183744 153 3060ft 2kts
14-Nov-20 10:03 34.571253 -117.188539 201 3252ft 118kts
14-Nov-20 10:04 34.539478 -117.199096 188 4661ft 124kts
14-Nov-20 10:05 34.507570 -117.214108 224 5821ft 140kts
14-Nov-20 10:06 34.479174 -117.251337 229 6479ft 174kts
14-Nov-20 10:07 34.445639 -117.297873 229 6486ft 187kts
14-Nov-20 10:08 34.411120 -117.345463 228 6477ft 188kts
14-Nov-20 10:09 34.376110 -117.392591 247 6471ft 187kts
14-Nov-20 10:09 34.396890 -117.430423 307 6480ft 182kts
14-Nov-20 10:11 34.422355 -117.495695 295 6480ft 185kts
14-Nov-20 10:12 34.443260 -117.552315 295 6478ft 183kts
14-Nov-20 10:12 34.460584 -117.599294 295 6480ft 182kts
14-Nov-20 10:14 34.484710 -117.664782 295 6485ft 182kts
14-Nov-20 10:14 34.501963 -117.711658 295 6488ft 182kts
14-Nov-20 10:16 34.526036 -117.777070 295 6494ft 182kts
14-Nov-20 10:16 34.543297 -117.824016 295 6496ft 182kts
14-Nov-20 10:17 34.563988 -117.880262 295 6497ft 182kts
14-Nov-20 10:18 34.584667 -117.936538 295 6499ft 183kts
14-Nov-20 10:19 34.605357 -117.992890 295 6505ft 182kts
14-Nov-20 10:20 34.626083 -118.049346 295 6510ft 183kts
14-Nov-20 10:21 34.648597 -118.104324 317 6511ft 181kts
14-Nov-20 10:22 34.690176 -118.138877 328 6515ft 181kts
14-Nov-20 10:23 34.722843 -118.183480 309 6516ft 182kts
14-Nov-20 10:24 34.757571 -118.228235 313 6519ft 182kts
14-Nov-20 10:25 34.792081 -118.273297 313 6521ft 182kts
14-Nov-20 10:26 34.826391 -118.318592 312 6529ft 182kts
14-Nov-20 10:27 34.845670 -118.373329 317 6527ft 182kts
14-Nov-20 10:28 34.883228 -118.414872 317 6530ft 182kts
14-Nov-20 10:29 34.920309 -118.456671 317 6530ft 182kts
14-Nov-20 10:30 34.957653 -118.498808 317 6535ft 182kts
14-Nov-20 10:31 34.994771 -118.540738 316 6505ft 184kts
14-Nov-20 10:32 35.010445 -118.598857 281 6568ft 179kts
14-Nov-20 10:33 35.033604 -118.651895 320 6584ft 182kts
14-Nov-20 10:34 35.081281 -118.668393 0 6622ft 186kts
14-Nov-20 10:35 35.126504 -118.689959 316 6539ft 185kts
14-Nov-20 10:36 35.164579 -118.732940 316 6410ft 184kts
14-Nov-20 10:37 35.202112 -118.775511 316 6431ft 183kts
14-Nov-20 10:38 35.239842 -118.818359 316 6162ft 191kts
14-Nov-20 10:39 35.276831 -118.860423 316 5639ft 170kts
14-Nov-20 10:40 35.308231 -118.896142 316 5102ft 143kts
14-Nov-20 10:41 35.336747 -118.928617 316 4660ft 136kts
14-Nov-20 10:42 35.364762 -118.954945 293 4142ft 137kts
14-Nov-20 10:43 35.378909 -118.990356 306 2190ft 113kts
14-Nov-20 10:44 35.400760 -119.017408 317 1335ft 98kts
14-Nov-20 10:45 35.419382 -119.039209 311 853ft 86kts
14-Nov-20 10:46 35.435001 -119.057670 311 495ft 52kts
14-Nov-20 10:47 35.438252 -119.059783 77 494ft 0kts
14-Nov-20 10:48 35.437712 -119.058599 135 496ft 0kts
14-Nov-20 10:49 0.000407 0.013975 359 3ft 0kts
14-Nov-20 10:50 0.000407 0.013975 359 3ft 0kts
14-Nov-20 10:51 0.000407 0.013975 359 3ft 0kts
14-Nov-20 10:52 0.000407 0.013975 359 3ft 0kts
14-Nov-20 10:53 0.000407 0.013975 359 3ft 0kts
14-Nov-20 10:54 0.000407 0.013975 359 3ft 0kts
14-Nov-20 10:55 0.000407 0.013975 359 3ft 0kts
14-Nov-20 10:56 0.000407 0.013975 359 3ft 0kts

Navigation Log

Ident Type
Flight plan parsing failed, navigation log unavailable